23 de maio de 2022

Tempo Código Clima Temp. Visão Nuvens Vento METAR/SPECI
19:55
M
15 °C 7 km 4.300 ft 260°   260° 6 kt METAR EHHW 231755Z AUTO 26006KT 210V290 7000 -RA FEW002/// BKN043/// BKN048/// 15/13 Q0996
19:25
V
16 °C 10 km+ - 150°   150° 7 kt METAR EHHW 231725Z AUTO 15007KT 080V250 9999 -SHRA +DZ FEW002/// SCT046/// 16/12 Q0997
18:55
V
18 °C 10 km+ - 090°   090° 13 kt METAR EHHW 231655Z AUTO 09013KT 030V120 9999 FEW046/// 18/11 Q0996
18:25
V
17 °C 10 km+ - 100°   100° 13 kt METAR EHHW 231625Z AUTO 10013KT 9999 FEW049/// 17/11 Q0997
17:55
V
17 °C 10 km+ - 100°   100° 12 kt METAR EHHW 231555Z AUTO 10012KT 9999 FEW039/// 17/11 Q0997 REDZ
17:25
V
16 °C 10 km+ - 100°   100° 14 kt METAR EHHW 231525Z AUTO 10014KT 9999 -DZRA NSC 16/11 Q0998
16:55
V
17 °C 10 km+ - 100°   100° 13 kt METAR EHHW 231455Z AUTO 10013KT 9999 NSC 17/11 Q0998
16:25
V
17 °C 10 km+ - 100°   100° 12 kt METAR EHHW 231425Z AUTO 10012KT 070V130 9999 NSC 17/11 Q0998
15:55
V
17 °C 10 km+ - 110°   110° 11 kt METAR EHHW 231355Z AUTO 11011KT 070V140 9999 NSC 17/11 Q0999
15:25
V
17 °C 10 km+ - 100°   100° 11 kt METAR EHHW 231325Z AUTO 10011KT 060V130 9999 NSC 17/11 Q0999
14:55
V
16 °C 10 km+ - 100°   100° 12 kt METAR EHHW 231255Z AUTO 10012KT 9999 NSC 16/11 Q1000
14:25
V
16 °C 10 km+ - 100°   100° 11 kt METAR EHHW 231225Z AUTO 10011KT 9999 NSC 16/11 Q1000
13:55
V
16 °C 10 km+ - 110°   110° 11 kt METAR EHHW 231155Z AUTO 11011KT 060V140 9999 NSC 16/11 Q1001
13:25
V
15 °C 10 km+ - 110°   110° 9 kt METAR EHHW 231125Z AUTO 11009KT 080V140 9999 NSC 15/10 Q1001
12:55
V
15 °C 10 km+ - 120°   120° 11 kt METAR EHHW 231055Z AUTO 12011KT 070V170 9999 NSC 15/10 Q1002
12:25
V
15 °C 10 km+ - 120°   120° 11 kt METAR EHHW 231025Z AUTO 12011KT 060V180 9999 NSC 15/10 Q1002
11:55
V
14 °C 10 km+ - 120°   120° 12 kt METAR EHHW 230955Z AUTO 12012KT 050V200 9999 NSC 14/10 Q1002
11:25
V
14 °C 10 km+ - 120°   120° 13 kt METAR EHHW 230925Z AUTO 12013KT 050V170 9999 NSC 14/10 Q1003
10:55
V
14 °C 10 km+ - 120°   120° 11 kt METAR EHHW 230855Z AUTO 12011KT 070V190 9999 NSC 14/09 Q1003
10:25
V
14 °C 10 km+ - 120°   120° 11 kt METAR EHHW 230825Z AUTO 12011KT 070V170 9999 NSC 14/09 Q1003
09:55
V
14 °C 10 km+ - 130°   130° 10 kt METAR EHHW 230755Z AUTO 13010KT 070V190 9999 NSC 14/09 Q1004
09:25
V
14 °C 10 km+ - 130°   130° 10 kt METAR EHHW 230725Z AUTO 13010KT 070V200 9999 NSC 14/09 Q1004
08:55
V
14 °C 10 km+ - 120°   120° 10 kt METAR EHHW 230655Z AUTO 12010KT 070V160 9999 NSC 14/09 Q1005
08:25
V
14 °C 10 km+ - 120°   120° 11 kt METAR EHHW 230625Z AUTO 12011KT 050V180 9999 NSC 14/09 Q1005
07:55
V
14 °C 10 km+ - 120°   120° 11 kt METAR EHHW 230555Z AUTO 12011KT 070V160 9999 NSC 14/09 Q1005
07:25
V
13 °C 10 km+ - 120°   120° 12 kt METAR EHHW 230525Z AUTO 12012KT 060V170 9999 NSC 13/09 Q1005
06:55
V
13 °C 10 km+ - 130°   130° 12 kt METAR EHHW 230455Z AUTO 13012KT 080V220 9999 NSC 13/09 Q1006
06:25
V
14 °C 10 km+ - 130°   130° 14 kt METAR EHHW 230425Z AUTO 13014KT 060V180 9999 NSC 14/09 Q1007
05:55
V
14 °C 10 km+ - 130°   130° 13 kt METAR EHHW 230355Z AUTO 13013KT 080V200 9999 NSC 14/09 Q1007
05:25
V
14 °C 10 km+ - Var   Var 15 kt METAR EHHW 230325Z AUTO VRB15KT 9999 NSC 14/09 Q1007
04:55
V
14 °C 10 km+ - 140°   140° 15 kt METAR EHHW 230255Z AUTO 14015KT 080V190 9999 NSC 14/09 Q1007
04:25
V
14 °C 10 km+ - 140°   140° 18 kt METAR EHHW 230225Z AUTO 14018KT 080V190 9999 NSC 14/09 Q1008
03:55
V
14 °C 10 km+ - 140°   140° 19 kt METAR EHHW 230155Z AUTO 14019KT 110V170 9999 NSC 14/09 Q1008
03:25
V
14 °C 10 km+ - 140°   140° 18 kt METAR EHHW 230125Z AUTO 14018KT 110V170 9999 NSC 14/09 Q1009
02:55
V
14 °C 10 km+ - 140°   140° 20 kt METAR EHHW 230055Z AUTO 14020KT 110V190 9999 NSC 14/10 Q1009
02:25
V
14 °C 10 km+ - 140°   140° 20 kt METAR EHHW 230025Z AUTO 14020KT 110V190 9999 NSC 14/09 Q1009
01:55
V
14 °C 10 km+ - 140°   140° 20 kt METAR EHHW 222355Z AUTO 14020KT 090V190 9999 NSC 14/10 Q1009
01:25
V
13 °C 10 km+ - 130°   130° 15 kt METAR EHHW 222325Z AUTO 13015KT 100V180 9999 NSC 13/10 Q1010
00:55
V
13 °C 10 km+ - 130°   130° 18 kt METAR EHHW 222255Z AUTO 13018KT 9999 NSC 13/10 Q1010
00:25
V
14 °C 10 km+ - 120°   120° 19 kt METAR EHHW 222225Z AUTO 12019KT 070V140 9999 NSC 14/09 Q1010

22 de maio de 2022

Tempo Código Clima Temp. Visão Nuvens Vento METAR/SPECI
23:55
V
14 °C 10 km+ - 110°   110° 17 kt METAR EHHW 222155Z AUTO 11017KT 060V140 9999 NSC 14/09 Q1011
23:25
V
13 °C 10 km+ - 110°   110° 16 kt METAR EHHW 222125Z AUTO 11016KT 070V130 9999 NSC 13/09 Q1011
22:55
V
14 °C 10 km+ - 110°   110° 15 kt METAR EHHW 222055Z AUTO 11015KT 070V130 9999 NSC 14/09 Q1011
22:25
V
14 °C 10 km+ - 110°   110° 12 kt METAR EHHW 222025Z AUTO 11012KT 070V140 9999 NSC 14/08 Q1012
21:55
V
14 °C 10 km+ - 100°   100° 14 kt METAR EHHW 221955Z AUTO 10014KT 9999 NSC 14/08 Q1012
21:25
V
13 °C 10 km+ - 100°   100° 11 kt METAR EHHW 221925Z AUTO 10011KT 9999 NSC 13/09 Q1012
20:55
V
13 °C 10 km+ - 110°   110° 10 kt METAR EHHW 221855Z AUTO 11010KT 060V130 9999 NSC 13/09 Q1012
20:25
V
14 °C 10 km+ - 110°   110° 9 kt METAR EHHW 221825Z AUTO 11009KT 060V140 9999 NSC 14/09 Q1012
19:55
V
14 °C 10 km+ - 110°   110° 8 kt METAR EHHW 221755Z AUTO 11008KT 070V140 9999 NSC 14/09 Q1013
19:25
V
13 °C 10 km+ - 120°   120° 7 kt METAR EHHW 221725Z AUTO 12007KT 070V150 9999 NSC 13/09 Q1013
18:55
V
13 °C 10 km+ - 110°   110° 9 kt METAR EHHW 221655Z AUTO 11009KT 070V130 9999 NSC 13/09 Q1013
18:25
V
13 °C 10 km+ - 130°   130° 8 kt METAR EHHW 221625Z AUTO 13008KT 080V180 9999 NSC 13/10 Q1014
17:55
V
14 °C 10 km+ - 130°   130° 7 kt METAR EHHW 221555Z AUTO 13007KT 080V180 9999 NSC 14/10 Q1014
17:25
V
14 °C 10 km+ - 140°   140° 7 kt METAR EHHW 221525Z AUTO 14007KT 110V210 9999 NSC 14/09 Q1014
16:55
V
13 °C 10 km+ - 150°   150° 3 kt METAR EHHW 221455Z AUTO 15003KT 090V240 9999 NSC 13/11 Q1014
16:25
V
13 °C 10 km+ - 150°   150° 4 kt METAR EHHW 221425Z AUTO 15004KT 130V190 9999 NSC 13/10 Q1015
15:55
V
13 °C 10 km+ - 150°   150° 3 kt METAR EHHW 221355Z AUTO 15003KT 100V240 9999 NSC 13/11 Q1015
15:25
V
14 °C 10 km+ - 180°   180° 2 kt METAR EHHW 221325Z AUTO 18002KT 9999 NSC 14/09 Q1015
14:55
V
14 °C 10 km+ - 180°   180° 3 kt METAR EHHW 221255Z AUTO 18003KT 9999 NSC 14/10 Q1015
14:25
V
14 °C 10 km+ - 200°   200° 4 kt METAR EHHW 221225Z AUTO 20004KT 9999 NSC 14/10 Q1015
13:55
V
14 °C 10 km+ - 200°   200° 6 kt METAR EHHW 221155Z AUTO 20006KT 9999 NSC 14/10 Q1016
13:25
V
13 °C 10 km+ - 210°   210° 8 kt METAR EHHW 221125Z AUTO 21008KT 9999 NSC 13/10 Q1016
12:55
V
13 °C 10 km+ - 200°   200° 10 kt METAR EHHW 221055Z AUTO 20010KT 9999 NSC 13/10 Q1016
12:25
V
13 °C 10 km+ - 200°   200° 11 kt METAR EHHW 221025Z AUTO 20011KT 9999 NSC 13/09 Q1016
11:55
V
13 °C 10 km+ - 200°   200° 10 kt METAR EHHW 220955Z AUTO 20010KT 9999 NSC 13/10 Q1016
11:25
V
13 °C 10 km+ - 200°   200° 10 kt METAR EHHW 220925Z AUTO 20010KT 9999 SCT048/// 13/10 Q1017
10:55
V
12 °C 10 km+ 4.800 ft 200°   200° 8 kt METAR EHHW 220855Z AUTO 20008KT 9999 BKN048/// 12/10 Q1017
10:25
V
13 °C 10 km+ - 200°   200° 9 kt METAR EHHW 220825Z AUTO 20009KT 9999 FEW048/// 13/09 Q1017
09:55
V
13 °C 10 km+ - 200°   200° 7 kt METAR EHHW 220755Z AUTO 20007KT 9999 NSC 13/08 Q1017
09:25
V
12 °C 10 km+ - 200°   200° 7 kt METAR EHHW 220725Z AUTO 20007KT 9999 NSC 12/08 Q1017
08:55
V
12 °C 10 km+ - 220°   220° 7 kt METAR EHHW 220655Z AUTO 22007KT 9999 NSC 12/09 Q1017
08:25
V
12 °C 10 km+ - 220°   220° 5 kt METAR EHHW 220625Z AUTO 22005KT 190V250 9999 NSC 12/09 Q1017
07:55
V
12 °C 10 km+ - 220°   220° 7 kt METAR EHHW 220555Z AUTO 22007KT 9999 NSC 12/09 Q1017
07:25
V
12 °C 10 km+ - 220°   220° 7 kt METAR EHHW 220525Z AUTO 22007KT 9999 NSC 12/08 Q1017
06:55
V
12 °C 10 km+ - 230°   230° 4 kt METAR EHHW 220455Z AUTO 23004KT 190V280 9999 NSC 12/09 Q1017
06:25
V
12 °C 10 km+ - 240°   240° 4 kt METAR EHHW 220425Z AUTO 24004KT 190V310 9999 NSC 12/09 Q1017
05:55
V
12 °C 10 km+ - 230°   230° 4 kt METAR EHHW 220355Z AUTO 23004KT 200V280 9999 NSC 12/09 Q1017
05:25
V
12 °C 10 km+ - 230°   230° 5 kt METAR EHHW 220325Z AUTO 23005KT 190V290 9999 NSC 12/09 Q1017
04:55
V
12 °C 10 km+ - 230°   230° 5 kt METAR EHHW 220255Z AUTO 23005KT 200V280 9999 NSC 12/09 Q1017
04:25
V
12 °C 10 km+ - 250°   250° 9 kt METAR EHHW 220225Z AUTO 25009KT 9999 NSC 12/09 Q1018
03:55
V
11 °C 10 km+ - 250°   250° 9 kt METAR EHHW 220155Z AUTO 25009KT 9999 NSC 11/09 Q1018
03:25
V
11 °C 10 km+ - 250°   250° 8 kt METAR EHHW 220125Z AUTO 25008KT 9999 NSC 11/09 Q1018
02:55
V
11 °C 10 km+ - 260°   260° 8 kt METAR EHHW 220055Z AUTO 26008KT 9999 NSC 11/09 Q1018
02:25
V
11 °C 10 km+ - 250°   250° 8 kt METAR EHHW 220025Z AUTO 25008KT 9999 NSC 11/09 Q1018
01:55
V
12 °C 10 km+ - 260°   260° 9 kt METAR EHHW 212355Z AUTO 26009KT 9999 NSC 12/09 Q1018
01:25
V
12 °C 10 km+ - 250°   250° 8 kt METAR EHHW 212325Z AUTO 25008KT 9999 NSC 12/09 Q1018
00:55
V
12 °C 10 km+ - 250°   250° 8 kt METAR EHHW 212255Z AUTO 25008KT 210V270 9999 NSC 12/09 Q1018
00:25
V
12 °C 10 km+ - 260°   260° 6 kt METAR EHHW 212225Z AUTO 26006KT 9999 NSC 12/09 Q1018

21 de maio de 2022

Tempo Código Clima Temp. Visão Nuvens Vento METAR/SPECI
23:55
V
12 °C 10 km+ - 250°   250° 7 kt METAR EHHW 212155Z AUTO 25007KT 9999 NSC 12/09 Q1018
23:25
V
12 °C 10 km+ - 260°   260° 5 kt METAR EHHW 212125Z AUTO 26005KT 9999 NSC 12/10 Q1019
22:55
V
12 °C 10 km+ - 260°   260° 8 kt METAR EHHW 212055Z AUTO 26008KT 9999 NSC 12/10 Q1019
22:25
V
12 °C 10 km+ - 260°   260° 9 kt METAR EHHW 212025Z AUTO 26009KT 9999 NSC 12/09 Q1019
21:55
V
12 °C 10 km+ - 260°   260° 8 kt METAR EHHW 211955Z AUTO 26008KT 9999 NSC 12/09 Q1019
21:25
V
12 °C 10 km+ - 270°   270° 9 kt METAR EHHW 211925Z AUTO 27009KT 9999 FEW011/// 12/09 Q1019
20:55
V
12 °C 10 km+ - 270°   270° 9 kt METAR EHHW 211855Z AUTO 27009KT 9999 SCT010/// 12/09 Q1019
20:25
M
12 °C 10 km+ 1.200 ft 270°   270° 9 kt METAR EHHW 211825Z AUTO 27009KT 250V310 9999 SCT010/// BKN012/// 12/09 Q1019
19:55
V
12 °C 10 km+ - 270°   270° 10 kt METAR EHHW 211755Z AUTO 27010KT 9999 SCT010/// SCT013/// 12/09 Q1019
19:25
M
12 °C 10 km+ 1.700 ft 270°   270° 11 kt METAR EHHW 211725Z AUTO 27011KT 9999 SCT010/// SCT013/// BKN017/// 12/09 Q1019
18:55
M
12 °C 10 km+ 1.200 ft 270°   270° 11 kt METAR EHHW 211655Z AUTO 27011KT 9999 SCT010/// BKN012/// 12/09 Q1019
18:25
M
12 °C 10 km+ 1.300 ft 260°   260° 11 kt METAR EHHW 211625Z AUTO 26011KT 9999 SCT010/// BKN013/// 12/09 Q1019
17:55
V
12 °C 10 km+ - 270°   270° 8 kt METAR EHHW 211555Z AUTO 27008KT 9999 SCT011/// 12/09 Q1019
17:25
M
13 °C 10 km+ 1.700 ft 280°   280° 10 kt METAR EHHW 211525Z AUTO 28010KT 9999 FEW010/// SCT013/// BKN017/// 13/09 Q1019
16:55
M
12 °C 10 km+ 1.400 ft 280°   280° 12 kt METAR EHHW 211455Z AUTO 28012KT 9999 SCT010/// BKN014/// BKN018/// 12/09 Q1019
Dados mais antigos

Baixe nosso aplicativo

Fácil acesso a todas as condições meteorológicas da aviação no seu celular e no seu tablet.
Com muitos recursos não disponíveis no site, como suporte offline e uma lista pessoal de aeroportos.

Nós e terceiros acompanhamos seu comportamento na internet em nosso site com cookies. Se você continuar, nós assumimos que você concorda com nossa política de cookies. Saiba mais